Wetterdaten: aktuell Samstag, 21.10.2017 23:45
Datum Zeit Auentemp. Feuchte A. Luftdruck Niederschl. Wind Richtung Richtung Sonnenschein UV Windben
21.10.2017 23:45 10,1 C 92 % 1017,0 hPa 1,0 l/m 2,1 km/h S 172 0 min 0,0 UV-I 4,8 km/h
21.10.2017 22:45 11,1 C 87 % 1016,5 hPa 0,8 l/m 9,6 km/h N-NW 342 0 min 0,0 UV-I 20,9 km/h
21.10.2017 21:45 12,4 C 88 % 1015,6 hPa 0,0 l/m 12,7 km/h N-NW 335 0 min 0,0 UV-I 22,5 km/h
21.10.2017 20:45 14,4 C 90 % 1014,5 hPa 0,0 l/m 0,0 km/h W 261 0 min 0,0 UV-I 0,0 km/h
21.10.2017 19:45 15,4 C 87 % 1014,4 hPa 0,0 l/m 0,1 km/h O 96 0 min 0,0 UV-I 1,6 km/h
21.10.2017 18:45 16,5 C 82 % 1015,0 hPa 0,0 l/m 2,3 km/h W-SW 256 0 min 0,0 UV-I 4,8 km/h
21.10.2017 17:45 17,9 C 75 % 1015,1 hPa 0,0 l/m 2,2 km/h S 179 0 min 0,0 UV-I 4,8 km/h
21.10.2017 16:45 18,8 C 71 % 1015,4 hPa 0,0 l/m 3,0 km/h S-SW 200 0 min 0,0 UV-I 6,4 km/h
21.10.2017 15:45 19,5 C 69 % 1015,5 hPa 0,0 l/m 3,2 km/h S 180 55 min 0,5 UV-I 8,0 km/h
21.10.2017 14:45 19,6 C 69 % 1015,7 hPa 0,0 l/m 5,5 km/h S-SW 209 50 min 1,3 UV-I 12,9 km/h
21.10.2017 13:45 18,6 C 72 % 1016,2 hPa 0,0 l/m 5,2 km/h S-SW 200 45 min 2,0 UV-I 11,3 km/h
21.10.2017 12:45 18,3 C 75 % 1016,9 hPa 0,0 l/m 3,8 km/h NW 316 55 min 1,5 UV-I 9,7 km/h
21.10.2017 11:45 17,1 C 79 % 1017,7 hPa 0,0 l/m 3,9 km/h S 172 60 min 1,7 UV-I 9,7 km/h
21.10.2017 10:45 15,4 C 89 % 1017,7 hPa 0,0 l/m 2,0 km/h S 191 10 min 1,0 UV-I 6,4 km/h
21.10.2017 09:45 12,0 C 95 % 1017,7 hPa 0,0 l/m 0,0 km/h O-SO 105 0 min 0,0 UV-I 1,6 km/h
21.10.2017 08:45 11,1 C 97 % 1017,5 hPa 0,0 l/m 0,2 km/h O-SO 123 0 min 0,0 UV-I 1,6 km/h
21.10.2017 07:35 10,7 C 96 % 1017,1 hPa 0,2 l/m 0,0 km/h N 0 0 min 0,0 UV-I 0,0 km/h
21.10.2017 06:35 10,8 C 96 % 1017,0 hPa 0,0 l/m 1,6 km/h O-SO 112 0 min 0,0 UV-I 3,2 km/h
21.10.2017 05:35 10,8 C 96 % 1017,1 hPa 0,0 l/m 0,0 km/h N 0 0 min 0,0 UV-I 0,0 km/h
21.10.2017 04:35 10,7 C 95 % 1017,1 hPa 0,2 l/m 0,0 km/h N 0 0 min 0,0 UV-I 0,0 km/h
21.10.2017 03:35 11,0 C 92 % 1017,5 hPa 0,2 l/m 1,6 km/h NW 315 0 min 0,0 UV-I 3,2 km/h
21.10.2017 02:35 10,7 C 93 % 1017,6 hPa 0,0 l/m 0,0 km/h N 0 0 min 0,0 UV-I 0,0 km/h
21.10.2017 01:35 10,5 C 92 % 1017,6 hPa 0,0 l/m 0,0 km/h N 0 0 min 0,0 UV-I 0,0 km/h
21.10.2017 00:35 11,6 C 88 % 1017,6 hPa 0,0 l/m 0,0 km/h N 0 0 min 0,0 UV-I 0,0 km/h
21.10.2017 00:00 12,6 C 86 % 1017,6 hPa 0,0 l/m 0,0 km/h N 0 0 min 0,0 UV-I 0,0 km/h
_ Min-Zeit 23:45 15:25 19:55 - 21:20 - - - - 21:20
Minimum _ 10,1 C 67 % 1014,4 hPa - 0,0 km/h - - - - 0,0 km/h
_ Max-Zeit 15:25 08:50 09:40 23:20 21:35 - - 15:40 13:45 21:35
Maximum _ 19,9 C 97 % 1017,9 hPa 0,4 l/m 15,4 km/h
W-NW
- - 5 min 2,0 UV-I 30,6 km/h
NW
Durchschnitt _ 14,0 C 86 % 1016,5 hPa #2,4 l/m 2,4 km/h S - #4:35 h 1,3 UV-I 5,6 km/h